Time;durP1;ratioP1;P1;durP2;ratioP2;P2;SDS_P1;SDS_P2;PMS_P1;PMS_P2;Temp;Humidity;BMP_temperature;BMP_pressure;BME280_temperature;BME280_humidity;BME280_pressure;Samples;Min_cycle;Max_cycle;Signal;HPM_P1;HPM_P2
2023/09/29 00:01:26;;;;;;;22.63;7.10;;;;;;;;;;5017768;28;20042;-73
2023/09/29 00:03:53;;;;;;;15.63;6.78;;;;;;;;;;5021605;28;20548;-74
2023/09/29 00:06:20;;;;;;;15.68;5.50;;;;;;;;;;5019923;28;20022;-73
2023/09/29 00:08:46;;;;;;;14.35;6.65;;;;;;;;;;5019530;28;20435;-74
2023/09/29 00:11:14;;;;;;;27.38;9.07;;;;;;;;;;5021192;28;20082;-73
2023/09/29 00:13:40;;;;;;;13.77;6.07;;;;;;;;;;5034529;28;20099;-73
2023/09/29 00:16:06;;;;;;;17.85;7.50;;;;;;;;;;5018244;28;20436;-73
2023/09/29 00:18:33;;;;;;;50.38;8.15;;;;;;;;;;5011944;28;20385;-73
2023/09/29 00:20:59;;;;;;;14.68;6.10;;;;;;;;;;5017028;28;20022;-73
2023/09/29 00:23:25;;;;;;;19.13;6.57;;;;;;;;;;5014386;28;20473;-73
2023/09/29 00:25:51;;;;;;;13.40;5.60;;;;;;;;;;5018676;28;20148;-73
2023/09/29 00:28:17;;;;;;;22.45;6.05;;;;;;;;;;5017356;28;20033;-72
2023/09/29 00:30:44;;;;;;;18.40;6.43;;;;;;;;;;5019594;28;20021;-72
2023/09/29 00:33:10;;;;;;;14.30;5.72;;;;;;;;;;5019679;28;20056;-72
2023/09/29 00:35:37;;;;;;;15.02;6.60;;;;;;;;;;5022465;28;20267;-72
2023/09/29 00:38:03;;;;;;;19.20;7.25;;;;;;;;;;5016776;28;20581;-72
2023/09/29 00:40:30;;;;;;;21.48;6.15;;;;;;;;;;5021621;28;20135;-72
2023/09/29 00:43:00;;;;;;;15.35;6.80;;;;;;;;;;5020495;28;20029;-72
2023/09/29 00:45:28;;;;;;;15.20;6.57;;;;;;;;;;5015608;28;20556;-72
2023/09/29 00:47:55;;;;;;;17.65;6.90;;;;;;;;;;5014699;28;20499;-73
2023/09/29 00:50:22;;;;;;;17.70;5.32;;;;;;;;;;5022631;28;20493;-73
2023/09/29 00:52:50;;;;;;;18.17;6.57;;;;;;;;;;5018801;28;20437;-73
2023/09/29 00:55:17;;;;;;;12.88;5.40;;;;;;;;;;5020985;28;20179;-72
2023/09/29 00:57:47;;;;;;;15.98;5.63;;;;;;;;;;5024389;28;20120;-72
2023/09/29 01:00:37;;;;;;;14.00;6.18;;;;;;;;;;5019120;28;20036;-72
2023/09/29 01:03:09;;;;;;;19.40;5.97;;;;;;;;;;5015045;28;20037;-73
2023/09/29 01:05:39;;;;;;;13.32;5.57;;;;;;;;;;5012964;28;20057;-73
2023/09/29 01:08:10;;;;;;;11.88;5.70;;;;;;;;;;5033179;28;20129;-72
2023/09/29 01:10:37;;;;;;;15.13;6.07;;;;;;;;;;5017401;28;20025;-73
2023/09/29 01:13:03;;;;;;;17.58;5.72;;;;;;;;;;5015876;28;20029;-73
2023/09/29 01:15:31;;;;;;;16.70;6.68;;;;;;;;;;5022575;28;20057;-73
2023/09/29 01:17:57;;;;;;;16.77;6.03;;;;;;;;;;5016889;28;20026;-72
2023/09/29 01:20:30;;;;;;;15.65;6.68;;;;;;;;;;5022880;28;20084;-73
2023/09/29 01:22:57;;;;;;;19.33;5.65;;;;;;;;;;5027332;28;20033;-72
2023/09/29 01:25:23;;;;;;;12.88;6.68;;;;;;;;;;5018529;28;20033;-72
2023/09/29 01:27:49;;;;;;;14.23;5.78;;;;;;;;;;5020588;28;20030;-72
2023/09/29 01:30:18;;;;;;;14.00;4.95;;;;;;;;;;5018737;28;20037;-72
2023/09/29 01:32:46;;;;;;;20.98;7.07;;;;;;;;;;5024428;28;20095;-73
2023/09/29 01:35:18;;;;;;;14.25;5.93;;;;;;;;;;5020860;28;20410;-73
2023/09/29 01:37:48;;;;;;;11.18;4.88;;;;;;;;;;5012735;28;20021;-73
2023/09/29 01:40:15;;;;;;;13.20;5.57;;;;;;;;;;5017549;28;20121;-73
2023/09/29 01:42:44;;;;;;;13.82;5.50;;;;;;;;;;5020338;28;20081;-73
2023/09/29 01:45:15;;;;;;;17.27;6.28;;;;;;;;;;5029055;28;20412;-72
2023/09/29 01:47:43;;;;;;;14.60;5.25;;;;;;;;;;5018709;28;20025;-72
2023/09/29 01:50:10;;;;;;;9.63;4.65;;;;;;;;;;5019525;28;20495;-72
2023/09/29 01:52:37;;;;;;;18.17;6.05;;;;;;;;;;5021806;28;20413;-73
2023/09/29 01:55:04;;;;;;;13.43;4.88;;;;;;;;;;5022693;28;20025;-72
2023/09/29 01:57:30;;;;;;;14.55;4.50;;;;;;;;;;5019712;28;20053;-74
2023/09/29 01:59:57;;;;;;;17.08;5.38;;;;;;;;;;5024954;28;20553;-74
2023/09/29 02:02:23;;;;;;;13.77;4.95;;;;;;;;;;5020523;28;20057;-73
2023/09/29 02:04:49;;;;;;;12.52;4.70;;;;;;;;;;5024739;28;20036;-73
2023/09/29 02:07:15;;;;;;;12.57;5.60;;;;;;;;;;5027966;28;20099;-73
2023/09/29 02:09:44;;;;;;;13.43;4.18;;;;;;;;;;5019680;28;20091;-72
2023/09/29 02:12:10;;;;;;;16.98;5.18;;;;;;;;;;5015224;28;20554;-71
2023/09/29 02:14:37;;;;;;;15.05;6.15;;;;;;;;;;5030052;28;20101;-73
2023/09/29 02:17:04;;;;;;;9.50;4.13;;;;;;;;;;5031417;28;20032;-72
2023/09/29 02:19:35;;;;;;;15.95;6.05;;;;;;;;;;5021115;28;20516;-72
2023/09/29 02:22:01;;;;;;;15.30;4.80;;;;;;;;;;5021484;28;20033;-73
2023/09/29 02:24:29;;;;;;;16.95;4.47;;;;;;;;;;5024012;28;20555;-73
2023/09/29 02:26:55;;;;;;;9.27;5.05;;;;;;;;;;5018569;28;20029;-73
2023/09/29 02:29:21;;;;;;;13.32;4.30;;;;;;;;;;5021075;28;20034;-72
2023/09/29 02:31:47;;;;;;;15.25;5.30;;;;;;;;;;5017918;28;20030;-73
2023/09/29 02:34:15;;;;;;;14.65;4.63;;;;;;;;;;5012623;28;20058;-73
2023/09/29 02:36:41;;;;;;;13.68;4.68;;;;;;;;;;5018361;28;20432;-73
2023/09/29 02:39:08;;;;;;;12.82;4.20;;;;;;;;;;5027566;28;20045;-72
2023/09/29 02:41:36;;;;;;;12.70;5.18;;;;;;;;;;5023815;28;20026;-72
2023/09/29 02:44:02;;;;;;;27.13;5.65;;;;;;;;;;5019007;28;20057;-73
2023/09/29 02:46:28;;;;;;;12.93;4.75;;;;;;;;;;5016463;28;20037;-72
2023/09/29 02:48:54;;;;;;;12.50;4.20;;;;;;;;;;5023260;28;20627;-73
2023/09/29 02:51:21;;;;;;;17.80;5.32;;;;;;;;;;5017370;28;20108;-72
2023/09/29 02:53:48;;;;;;;15.68;4.60;;;;;;;;;;5023430;28;20021;-74
2023/09/29 02:56:16;;;;;;;15.10;4.65;;;;;;;;;;5025732;28;20030;-72
2023/09/29 02:58:43;;;;;;;17.73;5.15;;;;;;;;;;5020353;28;20030;-72
2023/09/29 03:01:12;;;;;;;12.35;3.95;;;;;;;;;;5021036;28;20087;-72
2023/09/29 03:03:43;;;;;;;13.57;4.43;;;;;;;;;;5022753;28;20048;-74
2023/09/29 03:06:20;;;;;;;23.48;4.35;;;;;;;;;;5017744;28;20041;-73
2023/09/29 03:08:53;;;;;;;14.55;5.00;;;;;;;;;;5017760;28;20033;-72
2023/09/29 03:11:19;;;;;;;9.80;4.30;;;;;;;;;;5020474;28;20494;-72
2023/09/29 03:13:46;;;;;;;12.32;4.18;;;;;;;;;;5018438;28;20021;-71
2023/09/29 03:16:12;;;;;;;14.52;4.55;;;;;;;;;;5017718;28;20025;-73
2023/09/29 03:18:39;;;;;;;14.55;4.28;;;;;;;;;;5014920;28;20129;-72
2023/09/29 03:21:07;;;;;;;10.82;3.97;;;;;;;;;;5018741;28;20025;-73
2023/09/29 03:23:36;;;;;;;14.82;3.78;;;;;;;;;;5022012;28;20049;-72
2023/09/29 03:26:05;;;;;;;10.25;4.47;;;;;;;;;;5020199;28;20460;-72
2023/09/29 03:28:34;;;;;;;13.73;5.15;;;;;;;;;;5018695;28;20515;-73
2023/09/29 03:31:04;;;;;;;17.27;3.67;;;;;;;;;;5019158;28;20486;-71
2023/09/29 03:33:30;;;;;;;12.88;3.28;;;;;;;;;;5021274;28;20473;-73
2023/09/29 03:35:57;;;;;;;14.27;4.05;;;;;;;;;;5015932;28;20079;-72
2023/09/29 03:38:25;;;;;;;13.68;3.97;;;;;;;;;;5015316;28;20481;-72
2023/09/29 03:40:52;;;;;;;8.85;3.78;;;;;;;;;;5019121;28;20043;-73
2023/09/29 03:43:18;;;;;;;14.02;3.35;;;;;;;;;;5016283;28;20057;-73
2023/09/29 03:45:46;;;;;;;14.48;4.20;;;;;;;;;;5020595;28;20121;-73
2023/09/29 03:48:15;;;;;;;11.23;4.10;;;;;;;;;;5021374;28;20080;-73
2023/09/29 03:50:41;;;;;;;11.23;4.13;;;;;;;;;;5014611;28;20482;-73
2023/09/29 03:53:08;;;;;;;11.88;3.58;;;;;;;;;;5023797;28;20025;-73
2023/09/29 03:55:34;;;;;;;15.90;3.50;;;;;;;;;;5018378;28;20021;-72
2023/09/29 03:58:00;;;;;;;13.25;3.63;;;;;;;;;;5014304;28;20040;-72
2023/09/29 04:00:26;;;;;;;16.25;4.45;;;;;;;;;;5019263;28;20540;-72
2023/09/29 04:02:53;;;;;;;11.13;3.28;;;;;;;;;;5018957;28;20334;-73
2023/09/29 04:05:19;;;;;;;8.02;3.20;;;;;;;;;;5023378;28;20040;-72
2023/09/29 04:07:46;;;;;;;19.58;4.03;;;;;;;;;;5019966;28;20139;-73
2023/09/29 04:10:13;;;;;;;8.68;3.30;;;;;;;;;;5015705;28;20033;-73
2023/09/29 04:12:40;;;;;;;10.10;3.33;;;;;;;;;;5020948;28;20065;-74
2023/09/29 04:15:07;;;;;;;11.82;3.80;;;;;;;;;;5022381;28;20028;-73
2023/09/29 04:17:33;;;;;;;14.73;3.40;;;;;;;;;;5017426;28;20029;-73
2023/09/29 04:19:59;;;;;;;13.32;4.55;;;;;;;;;;5013921;28;20030;-73
2023/09/29 04:22:26;;;;;;;13.38;3.63;;;;;;;;;;5019553;28;20042;-73
2023/09/29 04:24:53;;;;;;;9.50;3.08;;;;;;;;;;5017615;28;20513;-74
2023/09/29 04:27:19;;;;;;;9.82;3.72;;;;;;;;;;5021681;28;20033;-72
2023/09/29 04:29:46;;;;;;;11.68;3.20;;;;;;;;;;5017436;28;20042;-72
2023/09/29 04:32:12;;;;;;;9.77;3.63;;;;;;;;;;5014084;28;20033;-72
2023/09/29 04:34:38;;;;;;;9.60;3.53;;;;;;;;;;5022400;28;20037;-73
2023/09/29 04:37:04;;;;;;;8.55;3.00;;;;;;;;;;5019714;28;20029;-72
2023/09/29 04:39:30;;;;;;;11.68;3.38;;;;;;;;;;5025765;28;20405;-73
2023/09/29 04:41:56;;;;;;;12.05;3.47;;;;;;;;;;5016595;28;20037;-72
2023/09/29 04:44:22;;;;;;;7.10;3.63;;;;;;;;;;5020824;28;20057;-71
2023/09/29 04:46:49;;;;;;;9.82;3.30;;;;;;;;;;5020561;28;20405;-72
2023/09/29 04:49:15;;;;;;;9.20;3.85;;;;;;;;;;5015284;28;20021;-73
2023/09/29 04:51:43;;;;;;;10.05;4.18;;;;;;;;;;5015867;28;20068;-73
2023/09/29 04:54:10;;;;;;;10.55;4.53;;;;;;;;;;5014189;28;20017;-72
2023/09/29 04:56:36;;;;;;;9.98;2.92;;;;;;;;;;5017230;28;20025;-72
2023/09/29 04:59:02;;;;;;;9.07;3.22;;;;;;;;;;5011498;28;20091;-73
2023/09/29 05:01:28;;;;;;;9.77;2.65;;;;;;;;;;5017913;28;20045;-73
2023/09/29 05:03:55;;;;;;;9.85;3.65;;;;;;;;;;5034295;28;20079;-73
2023/09/29 05:06:23;;;;;;;17.27;3.72;;;;;;;;;;5016969;28;20360;-73
2023/09/29 05:08:49;;;;;;;13.90;4.00;;;;;;;;;;5019393;28;20468;-72
2023/09/29 05:11:22;;;;;;;8.45;3.50;;;;;;;;;;5019799;28;20021;-73
2023/09/29 05:13:49;;;;;;;15.68;3.55;;;;;;;;;;5049066;28;20496;-73
2023/09/29 05:16:15;;;;;;;7.25;3.35;;;;;;;;;;5013240;28;20022;-73
2023/09/29 05:18:42;;;;;;;7.75;3.00;;;;;;;;;;5014897;28;20550;-73
2023/09/29 05:21:09;;;;;;;11.75;3.30;;;;;;;;;;5018550;28;20041;-73
2023/09/29 05:23:35;;;;;;;6.47;2.70;;;;;;;;;;5017601;28;20041;-72
2023/09/29 05:26:02;;;;;;;11.93;3.65;;;;;;;;;;5018895;28;20032;-73
2023/09/29 05:28:28;;;;;;;11.00;3.13;;;;;;;;;;5020997;28;20045;-73
2023/09/29 05:30:55;;;;;;;9.30;2.58;;;;;;;;;;5019839;28;20046;-72
2023/09/29 05:33:22;;;;;;;10.77;3.25;;;;;;;;;;5020780;28;20021;-74
2023/09/29 05:35:48;;;;;;;11.10;3.30;;;;;;;;;;5023629;28;20033;-72
2023/09/29 05:38:14;;;;;;;8.82;2.88;;;;;;;;;;5013311;28;20438;-73
2023/09/29 05:40:40;;;;;;;12.00;3.58;;;;;;;;;;5015450;28;20518;-72
2023/09/29 05:43:09;;;;;;;8.82;2.90;;;;;;;;;;5021439;28;20110;-73
2023/09/29 05:45:39;;;;;;;6.75;3.13;;;;;;;;;;5019321;28;20373;-73
2023/09/29 05:48:06;;;;;;;13.10;2.90;;;;;;;;;;5018821;28;20503;-72
2023/09/29 05:50:33;;;;;;;9.32;2.90;;;;;;;;;;5013842;28;20615;-72
2023/09/29 05:52:59;;;;;;;6.15;2.67;;;;;;;;;;5019404;28;20032;-72
2023/09/29 05:55:25;;;;;;;10.25;3.08;;;;;;;;;;5029465;28;20124;-77
2023/09/29 05:57:52;;;;;;;7.65;2.75;;;;;;;;;;5014793;28;20041;-73
2023/09/29 06:00:18;;;;;;;12.82;3.38;;;;;;;;;;5021155;28;20393;-73
2023/09/29 06:02:47;;;;;;;9.48;3.00;;;;;;;;;;5019644;28;20034;-72
2023/09/29 06:05:14;;;;;;;11.95;2.80;;;;;;;;;;5018486;28;20365;-74
2023/09/29 06:07:40;;;;;;;7.97;2.88;;;;;;;;;;5021610;28;20061;-76
2023/09/29 06:10:07;;;;;;;10.57;2.70;;;;;;;;;;5024686;28;20069;-71
2023/09/29 06:12:34;;;;;;;14.18;3.13;;;;;;;;;;5021382;28;20038;-71
2023/09/29 06:15:00;;;;;;;11.90;3.20;;;;;;;;;;5020244;28;20041;-73
2023/09/29 06:17:26;;;;;;;14.65;3.33;;;;;;;;;;5018496;28;20022;-73
2023/09/29 06:19:53;;;;;;;6.47;2.17;;;;;;;;;;5022668;28;20030;-76
2023/09/29 06:22:19;;;;;;;10.68;3.05;;;;;;;;;;5023491;28;20033;-72
2023/09/29 06:24:45;;;;;;;9.75;2.70;;;;;;;;;;5022391;28;20056;-72
2023/09/29 06:27:12;;;;;;;9.82;2.80;;;;;;;;;;5022158;28;20389;-74
2023/09/29 06:29:46;;;;;;;14.05;2.65;;;;;;;;;;5023055;28;20029;-74
2023/09/29 06:32:13;;;;;;;10.87;3.37;;;;;;;;;;5025236;28;20029;-72
2023/09/29 06:34:39;;;;;;;5.53;3.47;;;;;;;;;;5022399;28;20025;-73
2023/09/29 06:37:05;;;;;;;10.23;3.17;;;;;;;;;;5015468;28;20025;-73
2023/09/29 06:39:31;;;;;;;8.45;3.97;;;;;;;;;;5015586;28;20552;-71
2023/09/29 06:41:57;;;;;;;7.55;2.83;;;;;;;;;;5012245;28;20136;-73
2023/09/29 06:44:24;;;;;;;8.27;2.53;;;;;;;;;;5006245;28;20559;-72
2023/09/29 06:46:50;;;;;;;8.82;2.38;;;;;;;;;;5014960;28;20030;-72
2023/09/29 06:49:16;;;;;;;9.18;3.15;;;;;;;;;;5018491;28;20489;-70
2023/09/29 06:51:42;;;;;;;6.07;2.65;;;;;;;;;;5015795;28;20108;-73
2023/09/29 06:54:10;;;;;;;7.72;3.00;;;;;;;;;;5016127;28;20033;-72
2023/09/29 06:56:37;;;;;;;10.88;3.60;;;;;;;;;;5011452;28;20021;-73
2023/09/29 06:59:03;;;;;;;10.25;3.15;;;;;;;;;;5015910;28;20025;-73
2023/09/29 07:01:29;;;;;;;8.73;2.75;;;;;;;;;;5016259;28;20056;-72
2023/09/29 07:03:55;;;;;;;8.40;2.65;;;;;;;;;;5018897;28;20341;-73
2023/09/29 07:06:23;;;;;;;8.85;3.50;;;;;;;;;;5015730;28;20033;-73
2023/09/29 07:08:49;;;;;;;13.65;2.92;;;;;;;;;;5016007;28;20409;-76
2023/09/29 07:11:16;;;;;;;13.10;2.80;;;;;;;;;;5018062;28;20084;-73
2023/09/29 07:13:42;;;;;;;7.30;2.80;;;;;;;;;;5008278;28;20025;-72
2023/09/29 07:16:08;;;;;;;11.20;3.10;;;;;;;;;;5013788;28;20124;-73
2023/09/29 07:18:35;;;;;;;12.65;3.30;;;;;;;;;;5030259;28;20061;-73
2023/09/29 07:21:01;;;;;;;14.75;3.10;;;;;;;;;;5014742;28;20029;-73
2023/09/29 07:23:28;;;;;;;12.30;3.80;;;;;;;;;;5016707;28;20044;-72
2023/09/29 07:25:54;;;;;;;5.15;2.40;;;;;;;;;;5016711;28;20036;-72
2023/09/29 07:28:21;;;;;;;4.70;2.00;;;;;;;;;;5014533;28;20577;-73
2023/09/29 07:30:47;;;;;;;8.82;2.55;;;;;;;;;;5014582;28;20500;-73
2023/09/29 07:33:13;;;;;;;8.73;3.30;;;;;;;;;;5015753;28;20033;-73
2023/09/29 07:35:40;;;;;;;9.63;3.05;;;;;;;;;;5012797;28;20022;-73
2023/09/29 07:38:06;;;;;;;11.52;2.70;;;;;;;;;;5013176;28;20825;-73
2023/09/29 07:40:41;;;;;;;12.68;3.28;;;;;;;;;;4999301;28;20126;-73
2023/09/29 07:43:07;;;;;;;5.13;2.20;;;;;;;;;;5012325;28;20454;-74
2023/09/29 07:45:34;;;;;;;8.30;2.80;;;;;;;;;;5013668;28;20026;-73
2023/09/29 07:48:00;;;;;;;9.10;2.58;;;;;;;;;;5011877;28;20400;-73
2023/09/29 07:50:26;;;;;;;8.43;3.30;;;;;;;;;;5009438;28;20197;-74
2023/09/29 07:52:52;;;;;;;9.93;3.72;;;;;;;;;;5010857;28;20025;-70
2023/09/29 07:55:18;;;;;;;10.90;2.75;;;;;;;;;;5012295;28;20098;-70
2023/09/29 07:57:45;;;;;;;10.30;3.03;;;;;;;;;;5011814;28;20573;-72
2023/09/29 08:00:16;;;;;;;6.40;2.45;;;;;;;;;;5012625;28;20056;-71
2023/09/29 08:02:43;;;;;;;7.40;2.90;;;;;;;;;;5010593;28;20393;-72
2023/09/29 08:05:12;;;;;;;8.07;2.33;;;;;;;;;;5014174;28;20501;-70
2023/09/29 08:07:39;;;;;;;10.23;3.05;;;;;;;;;;5027796;28;20074;-74
2023/09/29 08:10:06;;;;;;;9.13;2.55;;;;;;;;;;5012608;28;21262;-69
2023/09/29 08:12:33;;;;;;;9.00;3.13;;;;;;;;;;5008561;28;20755;-70
2023/09/29 08:14:59;;;;;;;11.02;2.75;;;;;;;;;;4997616;28;20692;-70
2023/09/29 08:17:26;;;;;;;10.32;3.17;;;;;;;;;;5012573;28;20042;-76
2023/09/29 08:19:52;;;;;;;11.40;3.28;;;;;;;;;;5014808;28;20076;-76
2023/09/29 08:22:18;;;;;;;6.22;2.58;;;;;;;;;;5012273;28;20041;-75
2023/09/29 08:24:44;;;;;;;9.05;2.50;;;;;;;;;;5011760;28;20501;-73
2023/09/29 08:27:11;;;;;;;6.13;2.97;;;;;;;;;;5013997;28;20389;-76
2023/09/29 08:29:37;;;;;;;8.13;3.05;;;;;;;;;;5012901;28;20029;-75
2023/09/29 08:32:03;;;;;;;7.57;2.70;;;;;;;;;;5010424;28;20508;-75
2023/09/29 08:34:31;;;;;;;5.07;2.60;;;;;;;;;;5013912;28;20033;-75
2023/09/29 08:36:57;;;;;;;12.85;3.33;;;;;;;;;;5013246;28;20031;-75
2023/09/29 08:39:23;;;;;;;9.05;2.53;;;;;;;;;;5012915;28;20636;-74
2023/09/29 08:42:03;;;;;;;7.22;2.53;;;;;;;;;;5011309;28;20033;-75
2023/09/29 08:44:29;;;;;;;13.77;3.20;;;;;;;;;;5014611;28;20443;-75
2023/09/29 08:47:00;;;;;;;8.02;3.65;;;;;;;;;;5010351;28;20453;-74
2023/09/29 08:49:27;;;;;;;7.55;2.58;;;;;;;;;;5030911;28;20038;-74
2023/09/29 08:51:53;;;;;;;11.43;2.63;;;;;;;;;;5012690;28;20474;-74
2023/09/29 08:54:20;;;;;;;9.35;2.72;;;;;;;;;;5013002;28;21496;-75
2023/09/29 08:56:46;;;;;;;7.10;3.25;;;;;;;;;;5015315;28;20029;-73
2023/09/29 08:59:15;;;;;;;10.25;2.47;;;;;;;;;;5009165;28;20563;-72
2023/09/29 09:01:41;;;;;;;10.68;3.05;;;;;;;;;;5012402;28;20052;-73
2023/09/29 09:04:07;;;;;;;6.07;2.50;;;;;;;;;;5023312;28;20726;-75
2023/09/29 09:06:33;;;;;;;8.02;2.72;;;;;;;;;;5013242;28;20029;-75
2023/09/29 09:08:59;;;;;;;9.32;3.58;;;;;;;;;;5013102;28;20482;-74
2023/09/29 09:11:27;;;;;;;5.82;2.53;;;;;;;;;;5013963;28;20045;-70
2023/09/29 09:14:03;;;;;;;8.73;2.05;;;;;;;;;;5010837;28;20029;-74
2023/09/29 09:16:31;;;;;;;7.80;2.35;;;;;;;;;;5012951;28;20041;-75
2023/09/29 09:19:07;;;;;;;7.82;2.25;;;;;;;;;;5014338;28;20037;-75
2023/09/29 09:21:34;;;;;;;12.10;3.05;;;;;;;;;;5025034;28;20041;-75
2023/09/29 09:24:00;;;;;;;11.25;2.95;;;;;;;;;;5008615;28;20585;-75
2023/09/29 09:26:28;;;;;;;5.70;2.40;;;;;;;;;;5012501;28;20044;-74
2023/09/29 09:28:54;;;;;;;12.02;2.95;;;;;;;;;;5013678;28;20029;-74
2023/09/29 09:31:20;;;;;;;9.93;2.50;;;;;;;;;;5008627;28;20072;-76
2023/09/29 09:33:49;;;;;;;7.97;3.13;;;;;;;;;;5013296;28;20029;-76
2023/09/29 09:36:16;;;;;;;7.38;2.40;;;;;;;;;;5013734;28;20124;-74
2023/09/29 09:38:43;;;;;;;9.98;3.20;;;;;;;;;;5009235;28;20049;-74
2023/09/29 09:41:09;;;;;;;14.50;3.10;;;;;;;;;;5019511;28;20044;-73
2023/09/29 09:43:38;;;;;;;14.10;3.67;;;;;;;;;;5013546;28;20036;-71
2023/09/29 09:46:12;;;;;;;9.40;3.50;;;;;;;;;;5013064;28;20079;-71
2023/09/29 09:49:08;;;;;;;5.88;2.40;;;;;;;;;;5013595;28;20029;-72
2023/09/29 09:51:34;;;;;;;12.80;3.13;;;;;;;;;;5013257;28;20033;-72
2023/09/29 09:54:08;;;;;;;9.57;3.00;;;;;;;;;;5012179;28;20030;-72
2023/09/29 09:56:47;;;;;;;9.65;3.95;;;;;;;;;;5030161;28;20036;-73
2023/09/29 09:59:14;;;;;;;7.97;2.40;;;;;;;;;;5027404;28;20029;-74
2023/09/29 10:01:41;;;;;;;5.22;2.33;;;;;;;;;;5011700;28;20037;-71
2023/09/29 10:04:07;;;;;;;6.15;2.58;;;;;;;;;;5017206;28;20118;-74
2023/09/29 10:06:34;;;;;;;6.13;2.60;;;;;;;;;;5017607;28;20592;-74
2023/09/29 10:09:01;;;;;;;8.35;2.97;;;;;;;;;;5017164;28;20033;-71
2023/09/29 10:11:27;;;;;;;9.43;4.50;;;;;;;;;;5017205;28;20071;-71
2023/09/29 10:14:04;;;;;;;9.23;2.90;;;;;;;;;;5015094;28;20025;-70
2023/09/29 10:16:38;;;;;;;7.57;2.53;;;;;;;;;;5015856;28;20029;-72
2023/09/29 10:19:12;;;;;;;5.50;2.55;;;;;;;;;;5017189;28;20043;-72
2023/09/29 10:21:42;;;;;;;11.52;2.92;;;;;;;;;;5016246;28;20551;-71
2023/09/29 10:24:13;;;;;;;6.55;2.67;;;;;;;;;;5016712;28;20807;-71
2023/09/29 10:26:47;;;;;;;9.27;3.72;;;;;;;;;;5016074;28;20040;-70
2023/09/29 10:29:20;;;;;;;11.75;2.88;;;;;;;;;;5030745;28;20037;-71
2023/09/29 10:31:46;;;;;;;8.52;2.70;;;;;;;;;;5000533;28;20489;-73
2023/09/29 10:34:22;;;;;;;7.95;2.80;;;;;;;;;;5014402;28;20532;-73
2023/09/29 10:36:55;;;;;;;9.57;3.63;;;;;;;;;;5015007;28;20626;-72
2023/09/29 10:39:27;;;;;;;11.75;3.78;;;;;;;;;;5009867;28;20652;-75
2023/09/29 10:42:12;;;;;;;13.60;2.70;;;;;;;;;;5010917;28;20090;-74
2023/09/29 10:44:56;;;;;;;8.47;2.43;;;;;;;;;;5015665;28;20029;-71
2023/09/29 10:47:36;;;;;;;6.47;2.08;;;;;;;;;;5030218;28;20754;-71
2023/09/29 10:50:12;;;;;;;6.82;2.30;;;;;;;;;;5014497;28;20397;-72
2023/09/29 10:52:40;;;;;;;9.95;3.42;;;;;;;;;;5013323;28;20080;-71
2023/09/29 10:55:06;;;;;;;8.20;2.63;;;;;;;;;;5004859;28;20057;-71
2023/09/29 10:57:33;;;;;;;9.50;2.90;;;;;;;;;;5008362;28;20364;-71
2023/09/29 11:00:02;;;;;;;6.40;3.53;;;;;;;;;;5011305;28;20231;-72
2023/09/29 11:02:34;;;;;;;7.35;3.10;;;;;;;;;;5007020;28;20034;-72
2023/09/29 11:05:04;;;;;;;6.72;2.40;;;;;;;;;;5011422;28;20049;-73
2023/09/29 11:07:31;;;;;;;6.72;2.40;;;;;;;;;;5012854;28;20033;-75
2023/09/29 11:09:59;;;;;;;7.20;2.63;;;;;;;;;;5017639;28;20041;-75
2023/09/29 11:12:28;;;;;;;9.05;3.10;;;;;;;;;;5007139;28;20061;-75
2023/09/29 11:15:06;;;;;;;10.07;3.33;;;;;;;;;;5008591;28;20022;-76
2023/09/29 11:17:41;;;;;;;8.10;2.53;;;;;;;;;;5016160;28;20058;-76
2023/09/29 11:20:14;;;;;;;4.20;2.20;;;;;;;;;;5010237;28;20085;-75
2023/09/29 11:22:42;;;;;;;3.95;2.47;;;;;;;;;;5012220;28;20036;-72
2023/09/29 11:25:16;;;;;;;10.32;3.60;;;;;;;;;;5002985;28;20037;-76
2023/09/29 11:27:48;;;;;;;8.68;2.58;;;;;;;;;;5013538;28;20519;-74
2023/09/29 11:30:15;;;;;;;5.47;2.10;;;;;;;;;;5015111;28;20080;-75
2023/09/29 11:32:41;;;;;;;10.27;2.88;;;;;;;;;;5013837;28;20025;-73
2023/09/29 11:35:13;;;;;;;10.18;2.60;;;;;;;;;;5014996;28;20391;-72
2023/09/29 11:37:40;;;;;;;4.45;2.30;;;;;;;;;;5011091;28;20084;-73
2023/09/29 11:40:11;;;;;;;6.07;2.30;;;;;;;;;;5014805;28;20469;-71
2023/09/29 11:42:41;;;;;;;7.60;3.42;;;;;;;;;;5015331;28;20040;-74
2023/09/29 11:45:08;;;;;;;8.75;2.80;;;;;;;;;;5017240;28;20025;-75
2023/09/29 11:47:39;;;;;;;7.43;2.20;;;;;;;;;;5018772;28;20025;-76
2023/09/29 11:50:08;;;;;;;5.00;2.63;;;;;;;;;;5021170;28;20485;-73
2023/09/29 11:52:34;;;;;;;6.03;2.42;;;;;;;;;;5016727;28;20886;-74
2023/09/29 11:55:01;;;;;;;5.20;2.05;;;;;;;;;;5016673;28;20082;-73
2023/09/29 11:57:27;;;;;;;6.60;2.67;;;;;;;;;;5014869;28;20106;-75
2023/09/29 11:59:53;;;;;;;5.20;2.00;;;;;;;;;;5015586;28;20029;-72
2023/09/29 12:02:19;;;;;;;8.07;2.13;;;;;;;;;;5014976;28;20040;-73
2023/09/29 12:04:45;;;;;;;5.90;2.53;;;;;;;;;;5010650;28;20029;-76
2023/09/29 12:07:11;;;;;;;6.20;1.90;;;;;;;;;;5007349;28;20156;-76
2023/09/29 12:09:37;;;;;;;6.80;2.40;;;;;;;;;;5011842;28;20088;-76
2023/09/29 12:12:03;;;;;;;5.03;1.85;;;;;;;;;;5006880;28;20057;-73
2023/09/29 12:14:29;;;;;;;9.10;2.38;;;;;;;;;;5006554;28;20037;-73
2023/09/29 12:16:57;;;;;;;6.18;2.00;;;;;;;;;;5028073;28;20410;-74
2023/09/29 12:19:23;;;;;;;4.75;2.05;;;;;;;;;;5008803;28;20032;-73
2023/09/29 12:21:49;;;;;;;5.30;2.10;;;;;;;;;;5009908;28;20037;-73
2023/09/29 12:24:15;;;;;;;4.60;2.45;;;;;;;;;;5012527;28;20056;-73
2023/09/29 12:26:46;;;;;;;4.28;1.80;;;;;;;;;;5012021;28;20063;-75
2023/09/29 12:29:13;;;;;;;5.57;2.15;;;;;;;;;;5010728;28;20029;-74
2023/09/29 12:31:39;;;;;;;6.00;2.42;;;;;;;;;;5025089;28;20039;-73
2023/09/29 12:34:05;;;;;;;4.80;2.70;;;;;;;;;;5008894;28;20547;-73
2023/09/29 12:36:31;;;;;;;4.97;2.65;;;;;;;;;;5014101;28;20033;-74
2023/09/29 12:38:58;;;;;;;3.17;2.10;;;;;;;;;;5014152;28;20425;-73
2023/09/29 12:41:25;;;;;;;3.70;2.10;;;;;;;;;;5013653;28;20112;-74
2023/09/29 12:43:52;;;;;;;4.13;1.90;;;;;;;;;;5006511;28;20096;-74
2023/09/29 12:46:18;;;;;;;5.78;2.17;;;;;;;;;;5005366;28;20044;-73
2023/09/29 12:48:44;;;;;;;6.72;2.13;;;;;;;;;;5012354;28;20037;-74
2023/09/29 12:51:14;;;;;;;4.70;2.53;;;;;;;;;;5011507;28;20755;-75
2023/09/29 12:53:40;;;;;;;6.45;1.90;;;;;;;;;;5010241;28;20549;-74
2023/09/29 12:56:09;;;;;;;5.60;2.25;;;;;;;;;;5008912;28;20033;-74
2023/09/29 12:58:35;;;;;;;5.47;1.98;;;;;;;;;;5009646;28;21087;-75
2023/09/29 13:01:02;;;;;;;4.18;2.05;;;;;;;;;;5016078;28;20397;-74
2023/09/29 13:03:28;;;;;;;3.30;1.77;;;;;;;;;;5010296;28;20481;-73
2023/09/29 13:05:59;;;;;;;7.28;2.13;;;;;;;;;;5014350;28;20388;-73
2023/09/29 13:08:25;;;;;;;7.05;2.25;;;;;;;;;;5011450;28;20158;-72
2023/09/29 13:10:51;;;;;;;6.38;2.40;;;;;;;;;;5013659;28;20378;-73
2023/09/29 13:13:18;;;;;;;5.20;1.90;;;;;;;;;;5019071;28;20079;-76
2023/09/29 13:15:44;;;;;;;3.78;1.73;;;;;;;;;;5020062;28;20025;-73
2023/09/29 13:18:10;;;;;;;5.18;1.92;;;;;;;;;;5016048;28;20037;-75
2023/09/29 13:20:38;;;;;;;5.82;2.25;;;;;;;;;;5020487;28;20072;-75
2023/09/29 13:23:04;;;;;;;4.03;2.00;;;;;;;;;;5019935;28;20317;-75
2023/09/29 13:25:31;;;;;;;4.15;2.08;;;;;;;;;;5019179;28;20034;-74
2023/09/29 13:27:57;;;;;;;6.68;2.08;;;;;;;;;;5004075;28;20026;-69
2023/09/29 13:30:24;;;;;;;6.03;2.10;;;;;;;;;;5020144;28;20033;-70
2023/09/29 13:32:50;;;;;;;3.05;1.52;;;;;;;;;;5017442;28;20441;-69
2023/09/29 13:35:16;;;;;;;3.65;1.95;;;;;;;;;;5017290;28;20025;-71
2023/09/29 13:37:43;;;;;;;4.47;1.90;;;;;;;;;;5014086;28;20039;-73
2023/09/29 13:40:09;;;;;;;4.22;1.85;;;;;;;;;;5015055;28;20128;-73
2023/09/29 13:42:36;;;;;;;5.25;1.90;;;;;;;;;;5012581;28;20033;-73
2023/09/29 13:45:03;;;;;;;4.35;2.20;;;;;;;;;;5019514;28;20574;-70
2023/09/29 13:47:29;;;;;;;6.07;2.05;;;;;;;;;;5013591;28;20696;-70
2023/09/29 13:49:55;;;;;;;6.13;2.17;;;;;;;;;;5035312;28;20037;-70
2023/09/29 13:52:21;;;;;;;4.47;1.60;;;;;;;;;;5013397;28;20106;-73
2023/09/29 13:54:48;;;;;;;6.97;2.85;;;;;;;;;;5013006;28;21106;-72
2023/09/29 13:57:14;;;;;;;7.75;3.03;;;;;;;;;;5012813;28;20037;-73
2023/09/29 13:59:41;;;;;;;5.32;2.45;;;;;;;;;;5015510;28;20029;-74
2023/09/29 14:02:10;;;;;;;4.47;2.35;;;;;;;;;;5016094;28;20156;-73
2023/09/29 14:04:36;;;;;;;4.30;2.15;;;;;;;;;;5017931;28;20572;-74
2023/09/29 14:07:03;;;;;;;5.20;2.50;;;;;;;;;;5016187;28;20025;-74
2023/09/29 14:09:29;;;;;;;5.07;2.25;;;;;;;;;;5015578;28;20452;-74
2023/09/29 14:11:55;;;;;;;4.15;1.92;;;;;;;;;;5015039;28;20034;-74
2023/09/29 14:14:21;;;;;;;4.90;2.40;;;;;;;;;;5014434;28;20033;-75
2023/09/29 14:16:47;;;;;;;6.80;2.00;;;;;;;;;;5010868;28;20056;-75
2023/09/29 14:19:13;;;;;;;3.88;2.10;;;;;;;;;;5016349;28;20036;-75
2023/09/29 14:21:39;;;;;;;5.15;2.20;;;;;;;;;;5028807;28;20044;-73
2023/09/29 14:24:05;;;;;;;4.68;2.22;;;;;;;;;;5015387;28;20389;-72
2023/09/29 14:26:32;;;;;;;4.72;2.08;;;;;;;;;;5012971;28;20505;-71
2023/09/29 14:28:58;;;;;;;4.10;1.90;;;;;;;;;;5013303;28;20060;-73
2023/09/29 14:31:24;;;;;;;4.93;1.73;;;;;;;;;;5011553;28;20210;-73
2023/09/29 14:33:51;;;;;;;3.58;1.90;;;;;;;;;;5014076;28;20032;-74
2023/09/29 14:36:17;;;;;;;5.65;2.22;;;;;;;;;;4997245;28;20519;-73
2023/09/29 14:38:43;;;;;;;3.72;1.98;;;;;;;;;;5013695;28;20060;-73
2023/09/29 14:41:09;;;;;;;5.05;2.15;;;;;;;;;;5033117;28;20140;-73